createdAt,value
2019-03-05T00:01:00.359Z,67.67
2019-03-05T00:03:26.319Z,67.57
2019-03-05T00:05:52.268Z,67.38
2019-03-05T00:08:18.232Z,67.58
2019-03-05T00:10:44.247Z,67.54
2019-03-05T00:13:10.192Z,67.50
2019-03-05T00:15:36.113Z,67.44
2019-03-05T00:18:02.512Z,67.24
2019-03-05T00:20:28.434Z,67.06
2019-03-05T00:22:54.549Z,67.01
2019-03-05T00:25:32.332Z,66.91
2019-03-05T00:28:02.057Z,66.97
2019-03-05T00:30:44.970Z,66.65
2019-03-05T00:33:45.273Z,66.58
2019-03-05T00:36:42.146Z,66.36
2019-03-05T00:39:39.003Z,66.22
2019-03-05T00:42:28.649Z,66.26
2019-03-05T00:45:44.630Z,66.16
2019-03-05T00:48:38.662Z,66.17
2019-03-05T00:51:54.475Z,66.20
2019-03-05T00:54:53.387Z,65.99
2019-03-05T00:57:47.370Z,65.75
2019-03-05T01:00:54.929Z,65.66
2019-03-05T01:03:24.716Z,65.66
2019-03-05T01:06:11.206Z,65.93
2019-03-05T01:08:37.174Z,65.93
2019-03-05T01:11:03.087Z,65.67
2019-03-05T01:13:29.307Z,65.24
2019-03-05T01:15:55.274Z,65.04
2019-03-05T01:18:21.295Z,64.63
2019-03-05T01:20:47.355Z,64.55
2019-03-05T01:23:13.281Z,64.50
2019-03-05T01:25:39.262Z,64.33
2019-03-05T01:28:05.274Z,64.31
2019-03-05T01:30:53.064Z,64.20
2019-03-05T01:33:19.788Z,64.14
2019-03-05T01:38:40.336Z,63.88
2019-03-05T01:41:07.713Z,63.78
2019-03-05T01:43:33.648Z,63.56
2019-03-05T01:45:59.762Z,63.16
2019-03-05T01:48:25.701Z,63.14
2019-03-05T01:50:51.764Z,63.09
2019-03-05T01:53:17.723Z,63.07
2019-03-05T01:55:43.642Z,62.95
2019-03-05T01:58:09.614Z,62.77
2019-03-05T02:00:36.244Z,62.78
2019-03-05T02:03:02.181Z,62.71
2019-03-05T02:05:28.252Z,62.20
2019-03-05T02:07:54.168Z,62.39
2019-03-05T02:10:20.527Z,62.04
2019-03-05T02:12:46.539Z,61.84
2019-03-05T02:15:12.576Z,62.00
2019-03-05T02:17:38.537Z,61.98
2019-03-05T02:20:29.218Z,61.98
2019-03-05T02:23:01.899Z,61.07
2019-03-05T02:25:40.585Z,61.35
2019-03-05T02:28:10.322Z,61.23
2019-03-05T02:30:55.305Z,61.24
2019-03-05T02:33:57.115Z,61.11
2019-03-05T02:36:32.681Z,61.18
2019-03-05T02:39:27.164Z,61.08
2019-03-05T02:42:26.660Z,60.86
2019-03-05T02:45:36.527Z,60.14
2019-03-05T02:48:09.010Z,59.87
2019-03-05T02:50:47.740Z,59.94
2019-03-05T02:53:26.309Z,60.08
2019-03-05T02:56:02.075Z,60.32
2019-03-05T02:58:27.822Z,60.38
2019-03-05T03:01:04.876Z,60.69
2019-03-05T03:03:35.512Z,60.86
2019-03-05T03:06:03.384Z,61.10
2019-03-05T03:08:30.057Z,61.52
2019-03-05T03:10:56.001Z,62.01
2019-03-05T03:13:21.977Z,62.31
2019-03-05T03:15:47.904Z,62.70
2019-03-05T03:18:13.824Z,63.35
2019-03-05T03:20:39.767Z,63.73
2019-03-05T03:23:05.686Z,63.87
2019-03-05T03:25:31.746Z,64.47
2019-03-05T03:27:57.661Z,65.21
2019-03-05T03:30:23.613Z,65.58
2019-03-05T03:32:49.584Z,65.60
2019-03-05T03:35:15.627Z,65.85
2019-03-05T03:37:41.546Z,66.10
2019-03-05T03:40:10.398Z,66.74
2019-03-05T03:42:36.354Z,67.41
2019-03-05T03:45:05.085Z,67.93
2019-03-05T03:47:31.074Z,66.68
2019-03-05T03:49:56.975Z,66.06
2019-03-05T03:52:22.919Z,66.29
2019-03-05T03:54:48.859Z,66.42
2019-03-05T03:57:14.777Z,65.56
2019-03-05T03:59:40.705Z,65.83
2019-03-05T04:02:06.735Z,66.27
2019-03-05T04:04:32.672Z,66.88
2019-03-05T04:06:58.726Z,67.60
2019-03-05T04:09:24.649Z,68.53
2019-03-05T04:11:50.611Z,69.81
2019-03-05T04:14:16.661Z,69.80
2019-03-05T04:16:42.590Z,69.80
2019-03-05T04:19:10.431Z,69.87
2019-03-05T04:21:36.530Z,69.75
2019-03-05T04:24:02.458Z,69.65
2019-03-05T04:26:28.509Z,69.58
2019-03-05T04:28:54.445Z,70.12
2019-03-05T04:31:20.398Z,69.75
2019-03-05T04:33:46.342Z,69.40
2019-03-05T04:36:12.301Z,69.18
2019-03-05T04:38:38.224Z,69.18
2019-03-05T04:41:04.176Z,69.13
2019-03-05T04:43:30.092Z,69.35
2019-03-05T04:48:48.341Z,69.26
2019-03-05T04:51:16.176Z,69.37
2019-03-05T04:53:42.108Z,70.36
2019-03-05T04:56:08.038Z,70.20
2019-03-05T04:58:33.987Z,69.34
2019-03-05T05:01:00.013Z,68.70
2019-03-05T05:03:26.049Z,68.92
2019-03-05T05:05:52.123Z,69.30
2019-03-05T05:08:18.060Z,69.29
2019-03-05T05:10:43.992Z,69.02
2019-03-05T05:13:09.920Z,68.85
2019-03-05T05:15:35.837Z,69.03
2019-03-05T05:18:01.787Z,68.97
2019-03-05T05:20:27.816Z,69.23
2019-03-05T05:22:53.774Z,69.44
2019-03-05T05:25:19.710Z,69.15
2019-03-05T05:27:45.629Z,69.17
2019-03-05T05:30:43.660Z,68.62
2019-03-05T05:33:09.634Z,68.75
2019-03-05T05:35:35.691Z,68.66
2019-03-05T05:38:01.613Z,68.59
2019-03-05T05:40:30.378Z,68.74
2019-03-05T05:42:56.329Z,68.64
2019-03-05T05:45:49.011Z,68.75
2019-03-05T05:48:14.965Z,68.97
2019-03-05T05:50:40.886Z,69.32
2019-03-05T05:53:06.826Z,69.31
2019-03-05T05:55:32.741Z,69.11
2019-03-05T05:57:58.668Z,69.10
2019-03-05T06:00:24.622Z,69.41
2019-03-05T06:02:50.560Z,69.60
2019-03-05T06:05:16.519Z,69.60
2019-03-05T06:07:42.565Z,69.86
2019-03-05T06:10:12.628Z,69.78
2019-03-05T06:12:38.684Z,69.91
2019-03-05T06:15:07.848Z,69.81
2019-03-05T06:17:33.786Z,69.96
2019-03-05T06:19:59.730Z,70.24
2019-03-05T06:22:25.656Z,70.42
2019-03-05T06:24:51.587Z,70.91
2019-03-05T06:27:17.505Z,70.70
2019-03-05T06:29:43.452Z,70.32
2019-03-05T06:32:09.383Z,70.17
2019-03-05T06:34:35.321Z,69.85
2019-03-05T06:37:01.228Z,69.71
2019-03-05T06:39:27.166Z,69.52
2019-03-05T06:41:53.106Z,69.41
2019-03-05T06:44:19.154Z,69.25
2019-03-05T06:46:45.103Z,69.03
2019-03-05T06:49:11.120Z,68.80
2019-03-05T06:51:37.050Z,68.83
2019-03-05T06:54:03.017Z,68.66
2019-03-05T06:56:29.075Z,68.58
2019-03-05T06:58:55.029Z,68.46
2019-03-05T07:01:21.162Z,68.37
2019-03-05T07:03:47.104Z,67.82
2019-03-05T07:06:48.114Z,67.65
2019-03-05T07:09:29.909Z,67.09
2019-03-05T07:12:22.568Z,67.07
2019-03-05T07:14:52.332Z,66.88
2019-03-05T07:17:51.088Z,66.51
2019-03-05T07:20:20.839Z,66.11
2019-03-05T07:23:06.031Z,65.75
2019-03-05T07:25:31.977Z,65.35
2019-03-05T07:27:57.909Z,64.90
2019-03-05T07:30:23.873Z,64.36
2019-03-05T07:32:49.786Z,63.98
2019-03-05T07:35:17.732Z,63.80
2019-03-05T07:37:43.681Z,63.57
2019-03-05T07:40:10.339Z,63.11
2019-03-05T07:42:36.257Z,63.02
2019-03-05T07:45:03.609Z,63.04
2019-03-05T07:47:29.542Z,62.75
2019-03-05T07:49:55.449Z,63.07
2019-03-05T07:52:21.430Z,63.14
2019-03-05T07:54:47.376Z,62.60
2019-03-05T07:57:13.427Z,61.96
2019-03-05T07:59:39.373Z,61.15
2019-03-05T08:02:05.279Z,61.60
2019-03-05T08:04:31.243Z,60.12
2019-03-05T08:06:57.174Z,60.11
2019-03-05T08:09:34.622Z,59.64
2019-03-05T08:12:13.614Z,60.39
2019-03-05T08:15:07.368Z,60.15
2019-03-05T08:17:33.617Z,59.92
2019-03-05T08:19:59.566Z,58.78
2019-03-05T08:22:25.474Z,58.21
2019-03-05T08:24:51.400Z,57.40
2019-03-05T08:27:17.354Z,57.19
2019-03-05T08:29:43.276Z,57.51
2019-03-05T08:32:09.332Z,57.21
2019-03-05T08:34:35.255Z,56.41
2019-03-05T08:37:01.200Z,55.66
2019-03-05T08:39:27.161Z,55.04
2019-03-05T08:41:53.227Z,55.71
2019-03-05T08:44:19.150Z,55.96
2019-03-05T08:46:45.070Z,55.50
2019-03-05T08:49:11.021Z,55.19
2019-03-05T08:51:36.941Z,55.12
2019-03-05T08:54:02.869Z,53.90
2019-03-05T08:56:28.783Z,52.06
2019-03-05T08:58:54.708Z,52.83
2019-03-05T09:01:20.664Z,52.86
2019-03-05T09:03:46.608Z,52.17
2019-03-05T09:06:12.527Z,51.51
2019-03-05T09:08:38.648Z,51.00
2019-03-05T09:11:04.582Z,51.10
2019-03-05T09:13:33.008Z,51.09
2019-03-05T09:15:58.350Z,48.78
2019-03-05T09:18:24.260Z,50.25
2019-03-05T09:20:50.319Z,49.64
2019-03-05T09:23:16.235Z,48.71
2019-03-05T09:25:42.225Z,49.21
2019-03-05T09:28:08.142Z,49.49
2019-03-05T09:30:34.049Z,48.26
2019-03-05T09:32:59.984Z,48.38
2019-03-05T09:35:25.976Z,47.76
2019-03-05T09:37:51.888Z,48.31
2019-03-05T09:40:25.583Z,49.42
2019-03-05T09:42:51.516Z,49.33
2019-03-05T09:45:18.837Z,47.98
2019-03-05T09:47:44.846Z,47.03
2019-03-05T09:50:13.093Z,48.58
2019-03-05T09:52:39.042Z,47.52
2019-03-05T09:55:08.470Z,46.63
2019-03-05T09:57:34.496Z,46.59
2019-03-05T10:00:00.422Z,46.63
2019-03-05T10:02:26.363Z,46.57
2019-03-05T10:04:52.277Z,46.25
2019-03-05T10:07:19.229Z,45.65
2019-03-05T10:09:45.576Z,45.24
2019-03-05T10:12:11.512Z,46.96
2019-03-05T10:14:37.461Z,45.61
2019-03-05T10:17:03.486Z,45.05
2019-03-05T10:19:29.440Z,46.19
2019-03-05T10:21:55.378Z,46.99
2019-03-05T10:24:21.298Z,47.05
2019-03-05T10:26:47.249Z,47.03
2019-03-05T10:29:13.174Z,46.66
2019-03-05T10:31:39.116Z,46.62
2019-03-05T10:34:05.055Z,44.81
2019-03-05T10:36:30.995Z,44.97
2019-03-05T10:38:57.814Z,44.55
2019-03-05T10:41:23.843Z,45.29
2019-03-05T10:43:49.801Z,44.51
2019-03-05T10:46:15.824Z,44.92
2019-03-05T10:48:41.869Z,45.50
2019-03-05T10:51:07.983Z,43.66
2019-03-05T10:53:33.983Z,42.45
2019-03-05T10:55:59.849Z,43.93
2019-03-05T10:58:33.934Z,43.10
2019-03-05T11:00:54.600Z,42.41
2019-03-05T11:03:22.122Z,42.80
2019-03-05T11:05:48.284Z,42.87
2019-03-05T11:08:40.421Z,43.36
2019-03-05T11:11:13.587Z,41.91
2019-03-05T11:13:34.309Z,41.33
2019-03-05T11:16:02.843Z,41.71
2019-03-05T11:18:29.971Z,41.77
2019-03-05T11:20:56.112Z,40.81
2019-03-05T11:23:22.140Z,41.20
2019-03-05T11:25:48.209Z,41.32
2019-03-05T11:28:14.229Z,40.50
2019-03-05T11:30:40.172Z,41.07
2019-03-05T11:33:06.098Z,40.27
2019-03-05T11:35:32.633Z,41.23
2019-03-05T11:37:58.548Z,40.68
2019-03-05T11:40:24.503Z,39.51
2019-03-05T11:42:50.412Z,40.09
2019-03-05T11:45:45.050Z,40.35
2019-03-05T11:48:11.454Z,40.86
2019-03-05T11:50:37.406Z,41.65
2019-03-05T11:53:03.347Z,40.84
2019-03-05T11:55:29.293Z,40.60
2019-03-05T11:57:55.480Z,41.05
2019-03-05T12:00:33.121Z,39.87
2019-03-05T12:02:59.161Z,39.71
2019-03-05T12:05:25.073Z,40.18
2019-03-05T12:07:51.135Z,40.62
2019-03-05T12:10:41.833Z,40.87
2019-03-05T12:13:07.787Z,40.79
2019-03-05T12:15:40.667Z,40.51
2019-03-05T12:18:06.672Z,40.62
2019-03-05T12:20:32.607Z,39.97
2019-03-05T12:22:58.633Z,40.25
2019-03-05T12:25:25.106Z,41.31
2019-03-05T12:27:51.127Z,41.02
2019-03-05T12:30:38.859Z,41.57
2019-03-05T12:33:06.562Z,41.61
2019-03-05T12:35:35.293Z,41.19
2019-03-05T12:38:00.492Z,40.52
2019-03-05T12:40:27.020Z,40.74
2019-03-05T12:42:52.977Z,40.89
2019-03-05T12:45:19.892Z,41.03
2019-03-05T12:47:45.809Z,40.77
2019-03-05T12:50:17.771Z,40.61
2019-03-05T12:52:44.404Z,41.41
2019-03-05T12:55:12.113Z,40.85
2019-03-05T12:57:38.831Z,41.00
2019-03-05T13:00:26.971Z,40.98
2019-03-05T13:02:52.919Z,41.83
2019-03-05T13:05:18.839Z,42.27
2019-03-05T13:07:44.785Z,41.76
2019-03-05T13:10:18.787Z,41.62
2019-03-05T13:12:44.766Z,40.85
2019-03-05T13:15:14.422Z,41.80
2019-03-05T13:17:40.329Z,42.19
2019-03-05T13:20:32.394Z,41.90
2019-03-05T13:22:58.303Z,41.61
2019-03-05T13:25:28.364Z,41.54
2019-03-05T13:27:52.501Z,41.49
2019-03-05T13:30:22.077Z,41.65
2019-03-05T13:32:48.079Z,41.59
2019-03-05T13:35:16.712Z,41.60
2019-03-05T13:37:43.149Z,40.79
2019-03-05T13:40:14.819Z,40.87
2019-03-05T13:42:40.742Z,41.38
2019-03-05T13:45:09.147Z,41.75
2019-03-05T13:47:37.124Z,41.63
2019-03-05T13:50:32.641Z,41.87
2019-03-05T13:53:22.765Z,41.39
2019-03-05T13:56:27.151Z,41.81
2019-03-05T13:59:02.910Z,41.42
2019-03-05T14:01:28.841Z,41.62
2019-03-05T14:03:58.578Z,41.78
2019-03-05T14:06:48.047Z,41.97
2019-03-05T14:09:18.072Z,42.19
2019-03-05T14:11:46.726Z,41.67
2019-03-05T14:14:18.286Z,40.95
2019-03-05T14:16:44.929Z,41.27
2019-03-05T14:19:10.828Z,41.58
2019-03-05T14:21:36.794Z,41.38
2019-03-05T14:24:02.686Z,42.23
2019-03-05T14:26:28.616Z,42.57
2019-03-05T14:28:54.529Z,42.90
2019-03-05T14:31:20.471Z,43.33
2019-03-05T14:33:46.368Z,43.74
2019-03-05T14:36:13.341Z,43.71
2019-03-05T14:38:39.283Z,43.92
2019-03-05T14:41:05.194Z,44.04
2019-03-05T14:43:31.110Z,44.06
2019-03-05T14:45:57.118Z,44.26
2019-03-05T14:48:23.090Z,44.44
2019-03-05T14:50:49.073Z,44.86
2019-03-05T14:53:14.985Z,45.34
2019-03-05T14:55:41.011Z,45.41
2019-03-05T14:58:06.962Z,46.15
2019-03-05T15:00:33.012Z,46.29
2019-03-05T15:02:59.094Z,45.75
2019-03-05T15:05:24.995Z,45.24
2019-03-05T15:07:51.015Z,44.56
2019-03-05T15:10:16.999Z,44.98
2019-03-05T15:12:45.147Z,44.51
2019-03-05T15:15:45.384Z,44.22
2019-03-05T15:18:11.696Z,44.29
2019-03-05T15:20:37.649Z,44.67
2019-03-05T15:23:03.692Z,44.96
2019-03-05T15:25:29.775Z,44.81
2019-03-05T15:27:55.837Z,44.98
2019-03-05T15:30:46.621Z,44.90
2019-03-05T15:33:12.686Z,44.93
2019-03-05T15:35:38.811Z,44.62
2019-03-05T15:38:04.743Z,44.61
2019-03-05T15:40:30.675Z,44.83
2019-03-05T15:42:56.760Z,45.25
2019-03-05T15:45:22.672Z,44.98
2019-03-05T15:47:48.709Z,44.77
2019-03-05T15:50:38.464Z,44.37
2019-03-05T15:53:04.791Z,44.59
2019-03-05T15:55:30.659Z,44.64
2019-03-05T15:57:56.601Z,44.76
2019-03-05T16:00:27.229Z,44.78
2019-03-05T16:02:53.334Z,44.50
2019-03-05T16:05:20.840Z,44.65
2019-03-05T16:07:48.089Z,44.65
2019-03-05T16:10:17.130Z,44.80
2019-03-05T16:12:43.641Z,45.11
2019-03-05T16:15:10.838Z,45.03
2019-03-05T16:17:36.764Z,45.09
2019-03-05T16:20:03.912Z,44.85
2019-03-05T16:22:29.831Z,44.45
2019-03-05T16:24:56.258Z,44.07
2019-03-05T16:27:22.399Z,44.52
2019-03-05T16:29:48.537Z,44.68
2019-03-05T16:32:16.482Z,44.60
2019-03-05T16:34:47.300Z,43.77
2019-03-05T16:37:24.437Z,44.24
2019-03-05T16:39:52.342Z,44.38
2019-03-05T16:42:22.985Z,44.67
2019-03-05T16:44:50.855Z,45.08
2019-03-05T16:47:35.223Z,45.01
2019-03-05T16:55:39.273Z,44.45
2019-03-05T16:58:15.112Z,44.27
2019-03-05T17:00:49.044Z,44.48
2019-03-05T17:03:31.054Z,44.93
2019-03-05T17:06:10.900Z,44.82
2019-03-05T17:08:41.507Z,44.92
2019-03-05T17:11:24.202Z,44.84
2019-03-05T17:13:50.531Z,44.67
2019-03-05T17:16:16.809Z,44.96
2019-03-05T17:18:43.081Z,44.97
2019-03-05T17:21:11.881Z,45.28
2019-03-05T17:23:37.948Z,45.11
2019-03-05T17:26:04.295Z,45.07
2019-03-05T17:28:30.299Z,45.17
2019-03-05T17:30:56.597Z,45.27
2019-03-05T17:33:22.762Z,45.14
2019-03-05T17:35:48.702Z,45.44
2019-03-05T17:38:34.522Z,45.34
2019-03-05T17:41:01.224Z,45.33
2019-03-05T17:43:27.470Z,45.56
2019-03-05T17:45:53.378Z,45.82
2019-03-05T17:48:19.325Z,45.96
2019-03-05T17:50:45.460Z,45.74
2019-03-05T17:53:11.409Z,45.60
2019-03-05T17:55:37.570Z,45.93
2019-03-05T17:58:03.891Z,46.06
2019-03-05T18:00:37.578Z,46.28
2019-03-05T18:03:03.705Z,46.21
2019-03-05T18:05:29.972Z,46.24
2019-03-05T18:07:55.923Z,46.35
2019-03-05T18:10:22.948Z,46.20
2019-03-05T18:12:50.297Z,46.48
2019-03-05T18:15:16.311Z,46.34
2019-03-05T18:17:42.358Z,46.33
2019-03-05T18:20:16.611Z,46.42
2019-03-05T18:22:42.633Z,46.46
2019-03-05T18:25:11.059Z,45.97
2019-03-05T18:27:37.027Z,46.02
2019-03-05T18:30:06.812Z,46.36
2019-03-05T18:32:32.754Z,46.54
2019-03-05T18:34:58.673Z,46.67
2019-03-05T18:37:24.836Z,46.86
2019-03-05T18:39:50.977Z,46.84
2019-03-05T18:42:17.714Z,46.99
2019-03-05T18:44:43.983Z,47.17
2019-03-05T18:47:10.028Z,47.10
2019-03-05T18:49:35.959Z,47.10
2019-03-05T18:52:03.608Z,46.94
2019-03-05T18:54:29.772Z,47.59
2019-03-05T18:56:55.797Z,47.72
2019-03-05T18:59:21.805Z,48.41
2019-03-05T19:01:48.078Z,48.65
2019-03-05T19:04:14.329Z,48.48
2019-03-05T19:06:41.216Z,48.40
2019-03-05T19:09:07.145Z,48.45
2019-03-05T19:11:33.124Z,48.52
2019-03-05T19:13:59.443Z,48.39
2019-03-05T19:16:25.491Z,48.21
2019-03-05T19:18:51.417Z,48.27
2019-03-05T19:21:17.377Z,48.18
2019-03-05T19:23:43.540Z,48.20
2019-03-05T19:26:09.513Z,48.43
2019-03-05T19:28:35.528Z,48.75
2019-03-05T19:31:01.589Z,48.93
2019-03-05T19:33:27.546Z,49.53
2019-03-05T19:35:53.467Z,49.70
2019-03-05T19:38:19.481Z,49.88
2019-03-05T19:40:46.626Z,50.13
2019-03-05T19:43:12.565Z,50.48
2019-03-05T19:45:38.495Z,51.27
2019-03-05T19:48:04.642Z,51.54
2019-03-05T19:50:30.670Z,51.75
2019-03-05T19:52:56.833Z,52.32
2019-03-05T19:55:24.382Z,52.50
2019-03-05T19:57:50.833Z,52.79
2019-03-05T20:03:21.361Z,52.94
2019-03-05T20:05:47.299Z,52.88
2019-03-05T20:08:13.316Z,53.03
2019-03-05T20:10:39.251Z,53.04
2019-03-05T20:13:07.376Z,53.05
2019-03-05T20:15:33.399Z,53.23
2019-03-05T20:17:59.370Z,53.90
2019-03-05T20:20:31.553Z,54.08
2019-03-05T20:22:57.517Z,54.20
2019-03-05T20:25:31.176Z,54.77
2019-03-05T20:27:57.098Z,54.62
2019-03-05T20:30:23.564Z,54.46
2019-03-05T20:32:49.840Z,54.44
2019-03-05T20:35:16.461Z,54.50
2019-03-05T20:37:45.049Z,54.35
2019-03-05T20:40:13.472Z,54.22
2019-03-05T20:42:39.573Z,54.70
2019-03-05T20:45:14.695Z,54.93
2019-03-05T20:47:40.631Z,55.12
2019-03-05T20:50:09.758Z,55.12
2019-03-05T20:52:35.714Z,55.26
2019-03-05T20:55:04.664Z,56.14
2019-03-05T20:57:30.634Z,56.35
2019-03-05T20:59:56.563Z,57.12
2019-03-05T21:02:22.580Z,57.29
2019-03-05T21:04:48.547Z,57.02
2019-03-05T21:07:14.468Z,56.84
2019-03-05T21:09:40.589Z,56.73
2019-03-05T21:12:06.510Z,56.95
2019-03-05T21:14:32.794Z,57.02
2019-03-05T21:16:58.868Z,57.80
2019-03-05T21:19:24.940Z,58.39
2019-03-05T21:21:50.908Z,58.33
2019-03-05T21:24:16.832Z,58.07
2019-03-05T21:26:42.767Z,57.56
2019-03-05T21:29:08.818Z,57.35
2019-03-05T21:31:34.925Z,57.90
2019-03-05T21:34:00.925Z,58.31
2019-03-05T21:36:26.945Z,58.37
2019-03-05T21:38:52.871Z,59.04
2019-03-05T21:41:18.808Z,59.24
2019-03-05T21:43:44.864Z,59.37
2019-03-05T21:46:14.389Z,58.99
2019-03-05T21:48:40.318Z,59.04
2019-03-05T21:51:06.233Z,59.14
2019-03-05T21:53:32.187Z,59.65
2019-03-05T21:55:58.132Z,59.39
2019-03-05T21:58:24.068Z,59.36
2019-03-05T22:00:50.012Z,59.20
2019-03-05T22:03:15.945Z,59.73
2019-03-05T22:05:41.882Z,59.43
2019-03-05T22:08:07.801Z,59.46
2019-03-05T22:10:33.920Z,59.20
2019-03-05T22:12:59.844Z,59.19
2019-03-05T22:15:27.110Z,59.26
2019-03-05T22:17:53.071Z,59.45
2019-03-05T22:20:19.626Z,59.30
2019-03-05T22:22:45.625Z,59.18
2019-03-05T22:25:14.855Z,59.17
2019-03-05T22:27:40.767Z,59.29
2019-03-05T22:30:13.401Z,59.70
2019-03-05T22:32:39.336Z,62.45
2019-03-05T22:35:07.071Z,67.05
2019-03-05T22:37:32.992Z,69.22
2019-03-05T22:39:58.943Z,72.78
2019-03-05T22:42:24.893Z,71.73
2019-03-05T22:44:51.010Z,70.15
2019-03-05T22:47:16.933Z,70.15
2019-03-05T22:49:42.970Z,69.83
2019-03-05T22:52:08.908Z,69.48
2019-03-05T22:54:34.925Z,69.98
2019-03-05T22:57:00.883Z,69.86
2019-03-05T22:59:26.806Z,70.48
2019-03-05T23:01:52.767Z,70.21
2019-03-05T23:04:18.798Z,70.40
2019-03-05T23:06:44.877Z,70.46
2019-03-05T23:09:13.018Z,70.47
2019-03-05T23:11:38.960Z,70.96
2019-03-05T23:14:05.115Z,70.45
2019-03-05T23:16:31.254Z,70.26
2019-03-05T23:18:57.404Z,71.05
2019-03-05T23:21:23.362Z,70.89
2019-03-05T23:23:49.489Z,70.61
2019-03-05T23:26:15.634Z,70.77
2019-03-05T23:28:41.563Z,70.40
2019-03-05T23:31:08.093Z,70.94
2019-03-05T23:33:34.030Z,71.43
2019-03-05T23:35:59.954Z,71.36
2019-03-05T23:38:25.905Z,71.56
2019-03-05T23:40:51.918Z,71.12
2019-03-05T23:43:17.894Z,71.55
2019-03-05T23:45:46.159Z,72.12
2019-03-05T23:48:12.083Z,72.56
2019-03-05T23:50:38.000Z,73.19
2019-03-05T23:53:03.943Z,73.03
2019-03-05T23:55:29.921Z,72.71
2019-03-05T23:57:55.962Z,72.84
